Time;durP1;ratioP1;P1;durP2;ratioP2;P2;SDS_P1;SDS_P2;PMS_P1;PMS_P2;Temp;Humidity;BMP_temperature;BMP_pressure;BME280_temperature;BME280_humidity;BME280_pressure;Samples;Min_cycle;Max_cycle;Signal;HPM_P1;HPM_P2
2022/05/13 06:52:13;;;;;;;15.02;3.75;;;;;;;;;;6150639;23;20059;-90
2022/05/13 06:54:44;;;;;;;15.75;3.95;;;;;;;;;;6126571;23;20021;-87
2022/05/13 06:57:13;;;;;;;19.38;3.88;;;;;;;;;;6151487;23;20053;-88
2022/05/13 06:59:39;;;;;;;16.33;4.10;;;;;;;;;;6152463;23;20009;-89
2022/05/13 07:02:06;;;;;;;17.70;3.95;;;;;;;;;;6152049;23;20123;-90
2022/05/13 07:04:32;;;;;;;14.50;3.80;;;;;;;;;;6154596;23;20013;-91
2022/05/13 07:07:07;;;;;;;11.07;3.90;;;;;;;;;;6135556;23;20044;-88
2022/05/13 07:09:34;;;;;;;9.75;3.10;;;;;;;;;;6143151;23;20035;-88
2022/05/13 07:12:10;;;;;;;13.30;3.38;;;;;;;;;;6128653;23;20076;-89
2022/05/13 07:14:37;;;;;;;15.07;3.80;;;;;;;;;;6152172;23;20028;-90
2022/05/13 07:17:06;;;;;;;17.27;3.88;;;;;;;;;;6151652;23;20017;-88
2022/05/13 07:19:32;;;;;;;13.45;3.45;;;;;;;;;;6126669;23;20031;-91
2022/05/13 07:22:00;;;;;;;16.33;4.88;;;;;;;;;;6155316;23;20013;-92
2022/05/13 07:24:30;;;;;;;18.63;3.33;;;;;;;;;;6156191;23;20048;-91
2022/05/13 07:26:56;;;;;;;10.20;2.20;;;;;;;;;;6176666;23;20013;-89
2022/05/13 07:29:22;;;;;;;9.32;2.83;;;;;;;;;;6154456;23;20017;-90
2022/05/13 07:31:48;;;;;;;5.53;2.03;;;;;;;;;;6171421;23;20401;-91
2022/05/13 07:34:14;;;;;;;7.38;2.47;;;;;;;;;;6160064;23;20072;-88
2022/05/13 07:36:41;;;;;;;7.43;1.95;;;;;;;;;;6127434;23;20609;-91
2022/05/13 07:41:52;;;;;;;6.90;1.90;;;;;;;;;;6151825;23;20013;-89
2022/05/13 07:44:21;;;;;;;6.78;1.88;;;;;;;;;;6152203;23;20017;-90
2022/05/13 07:46:47;;;;;;;12.10;2.05;;;;;;;;;;6131096;23;20043;-91
2022/05/13 07:49:15;;;;;;;6.88;1.85;;;;;;;;;;6175379;23;20434;-90
2022/05/13 07:51:44;;;;;;;8.40;1.92;;;;;;;;;;6149845;23;20020;-88
2022/05/13 07:54:10;;;;;;;9.18;1.90;;;;;;;;;;6150434;23;20354;-90
2022/05/13 07:56:37;;;;;;;6.22;2.13;;;;;;;;;;6150892;23;20013;-90
2022/05/13 07:59:03;;;;;;;11.68;2.15;;;;;;;;;;6175125;23;20068;-89
2022/05/13 08:01:32;;;;;;;7.65;1.95;;;;;;;;;;6176812;23;20016;-90
2022/05/13 08:04:01;;;;;;;10.07;1.80;;;;;;;;;;6176235;23;20020;-88
2022/05/13 08:06:33;;;;;;;11.27;2.35;;;;;;;;;;6151985;23;20013;-90
2022/05/13 08:09:00;;;;;;;6.40;1.75;;;;;;;;;;6176647;23;20087;-90
2022/05/13 08:11:29;;;;;;;8.23;1.90;;;;;;;;;;6176035;23;20019;-90
2022/05/13 08:13:56;;;;;;;9.43;1.77;;;;;;;;;;6151363;23;20414;-89
2022/05/13 08:16:25;;;;;;;9.85;2.17;;;;;;;;;;6152134;23;20116;-90
2022/05/13 08:18:52;;;;;;;8.45;1.80;;;;;;;;;;6150811;23;20017;-88
2022/05/13 08:21:24;;;;;;;6.70;1.75;;;;;;;;;;6176590;23;20014;-89
2022/05/13 08:23:50;;;;;;;5.05;1.60;;;;;;;;;;6150656;23;20013;-87
2022/05/13 08:26:16;;;;;;;7.57;1.52;;;;;;;;;;6175675;23;20131;-91
2022/05/13 08:28:43;;;;;;;5.05;1.77;;;;;;;;;;6151160;23;20097;-89
2022/05/13 08:31:15;;;;;;;10.45;2.35;;;;;;;;;;6152998;23;20013;-90
2022/05/13 08:33:47;;;;;;;7.35;1.90;;;;;;;;;;6178901;23;20381;-89
2022/05/13 08:36:13;;;;;;;5.25;1.67;;;;;;;;;;6153408;23;20021;-90
2022/05/13 08:38:40;;;;;;;7.80;1.77;;;;;;;;;;6177087;23;20017;-89
2022/05/13 08:41:10;;;;;;;10.15;1.60;;;;;;;;;;6153416;23;20343;-91
2022/05/13 08:43:52;;;;;;;6.32;1.90;;;;;;;;;;6177601;23;20009;-89
2022/05/13 08:46:21;;;;;;;5.13;1.85;;;;;;;;;;6178752;23;20202;-90
2022/05/13 08:48:47;;;;;;;10.05;2.25;;;;;;;;;;6151634;23;20056;-90
2022/05/13 08:51:15;;;;;;;5.47;1.90;;;;;;;;;;6151378;23;20039;-90
2022/05/13 08:53:45;;;;;;;7.30;1.92;;;13.80;99.90;;;;;;6151940;23;20240;-89
2022/05/13 08:56:15;;;;;;;8.25;1.95;;;;;;;;;;6128262;23;20016;-89
2022/05/13 08:58:41;;;;;;;10.63;1.60;;;;;;;;;;6152472;23;20253;-89
2022/05/13 09:01:11;;;;;;;10.73;2.03;;;;;;;;;;6152061;23;20090;-89
2022/05/13 09:03:50;;;;;;;5.57;1.75;;;15.40;99.90;;;;;;6127876;23;20059;-92
2022/05/13 09:06:23;;;;;;;6.45;1.65;;;;;;;;;;6128206;23;20013;-88
2022/05/13 09:08:52;;;;;;;4.82;1.30;;;;;;;;;;6153352;23;20024;-88
2022/05/13 09:11:38;;;;;;;7.32;1.83;;;;;;;;;;6128773;23;20017;-88
2022/05/13 09:14:08;;;;;;;6.80;1.70;;;;;;;;;;6152787;23;20469;-88
2022/05/13 09:16:34;;;;;;;8.80;2.00;;;;;;;;;;6129002;23;20116;-90
2022/05/13 09:19:04;;;;;;;7.20;1.50;;;;;;;;;;6152652;23;20409;-90
2022/05/13 09:21:30;;;;;;;6.97;1.88;;;;;;;;;;6151590;23;20041;-90
2022/05/13 09:23:59;;;;;;;6.00;1.42;;;;;;;;;;6128166;23;20009;-90
2022/05/13 09:26:29;;;;;;;5.68;1.30;;;;;;;;;;6128157;23;20219;-90
2022/05/13 09:29:13;;;;;;;7.32;2.22;;;;;;;;;;6129204;23;20473;-88
2022/05/13 09:31:42;;;;;;;7.53;2.10;;;;;;;;;;6153046;23;20024;-93
2022/05/13 09:34:16;;;;;;;5.32;1.90;;;;;;;;;;6152267;23;20453;-90
2022/05/13 09:36:42;;;;;;;4.13;1.48;;;;;;;;;;6152293;23;20032;-91
2022/05/13 09:39:25;;;;;;;7.20;1.70;;;;;;;;;;6151920;23;20485;-92
2022/05/13 09:41:53;;;;;;;5.30;1.65;;;;;;;;;;6152690;23;20390;-89
2022/05/13 09:44:29;;;;;;;7.35;1.70;;;;;;;;;;6151591;23;20013;-88
2022/05/13 09:47:40;;;;;;;3.95;1.50;;;;;;;;;;6159208;23;20012;-88
2022/05/13 09:50:17;;;;;;;8.43;1.70;;;;;;;;;;6095786;23;20445;-89
2022/05/13 09:53:02;;;;;;;5.80;1.50;;;;;;;;;;6172679;23;20024;-89
2022/05/13 09:55:36;;;;;;;9.45;1.33;;;;;;;;;;6152209;23;20438;-88
2022/05/13 09:58:09;;;;;;;10.18;1.92;;;;;;;;;;6175765;23;20406;-92
2022/05/13 10:00:44;;;;;;;5.47;1.67;;;;;;;;;;6177983;23;20071;-88
2022/05/13 10:03:23;;;;;;;8.02;1.50;;;;;;;;;;6150376;23;20365;-89
2022/05/13 10:06:03;;;;;;;4.97;1.55;;;;;;;;;;6176528;23;20142;-88
2022/05/13 10:08:30;;;;;;;6.65;1.70;;;;;;;;;;6177065;23;20171;-88
2022/05/13 10:13:57;;;;;;;6.22;1.38;;;;;;;;;;6178508;23;20024;-92
2022/05/13 10:16:41;;;;;;;5.15;1.25;;;;;;;;;;6177692;23;20385;-92
2022/05/13 10:19:07;;;;;;;6.25;1.70;;;;;;;;;;6178937;23;20017;-89
2022/05/13 10:21:43;;;;;;;5.47;1.20;;;;;;;;;;6179066;23;20045;-91
2022/05/13 10:24:32;;;;;;;4.70;1.30;;;;;;;;;;6178125;23;20014;-91
2022/05/13 10:27:02;;;;;;;6.45;1.20;;;;;;;;;;6179151;23;20013;-90
2022/05/13 10:29:36;;;;;;;6.32;1.40;;;;;;;;;;6179152;23;20397;-90
2022/05/13 10:32:10;;;;;;;3.13;1.10;;;;;;;;;;6154169;23;20350;-89
2022/05/13 10:34:38;;;;;;;3.83;1.30;;;16.00;99.90;;;;;;6177808;23;20391;-91
2022/05/13 10:37:28;;;;;;;6.30;1.52;;;16.20;99.90;;;;;;6152850;23;20048;-91
2022/05/13 10:39:59;;;;;;;6.07;1.30;;;;;;;;;;6153150;23;20405;-91
2022/05/13 10:42:42;;;;;;;4.03;1.27;;;;;;;;;;6178543;23;20045;-88
2022/05/13 10:45:09;;;;;;;8.00;1.48;;;;;;;;;;6178809;23;20025;-89
2022/05/13 10:47:42;;;;;;;5.45;1.48;;;;;;;;;;6177349;23;20663;-90
2022/05/13 10:50:19;;;;;;;6.15;1.42;;;;;;;;;;6177514;23;20024;-91
2022/05/13 10:53:06;;;;;;;5.00;1.60;;;;;;;;;;6152480;23;20116;-90
2022/05/13 10:56:02;;;;;;;9.07;1.80;;;;;;;;;;6152861;23;20021;-92
2022/05/13 10:59:04;;;;;;;5.10;1.40;;;;;;;;;;6140143;23;20017;-91
2022/05/13 11:01:40;;;;;;;5.68;1.75;;;;;;;;;;6095895;23;20017;-89
2022/05/13 11:04:45;;;;;;;8.40;2.35;;;16.40;99.90;;;;;;6170740;23;20024;-91
2022/05/13 11:07:17;;;;;;;10.00;2.90;;;;;;;;;;6165362;23;20458;-89
2022/05/13 11:18:02;;;;;;;6.28;1.30;;;;;;;;;;6175350;23;20021;-92
2022/05/13 11:20:39;;;;;;;6.28;2.00;;;;;;;;;;6128933;23;20048;-89
2022/05/13 11:23:08;;;;;;;7.40;2.05;;;;;;;;;;6128489;23;20009;-91
2022/05/13 11:26:01;;;;;;;8.55;1.92;;;;;;;;;;6129224;23;20346;-91
2022/05/13 11:28:38;;;;;;;7.35;2.03;;;;;;;;;;6131843;23;20017;-89
2022/05/13 11:31:10;;;;;;;14.48;2.10;;;;;;;;;;6128560;23;20013;-91
2022/05/13 11:33:37;;;;;;;12.10;2.25;;;;;;;;;;6129646;23;20067;-90
2022/05/13 11:36:23;;;;;;;7.10;2.08;;;;;;;;;;6154078;23;20089;-90
2022/05/13 11:39:07;;;;;;;5.38;1.73;;;;;;;;;;6125172;23;20362;-89
2022/05/13 11:41:52;;;;;;;9.88;1.75;;;;;;;;;;6127502;23;20148;-90
2022/05/13 11:44:28;;;;;;;6.78;1.70;;;;;;;;;;6127326;23;20066;-90
2022/05/13 11:47:21;;;;;;;6.75;1.75;;;;;;;;;;6150144;23;20009;-91
2022/05/13 11:49:47;;;;;;;;;;;;;;;;;;6004710;23;20027;-92
2022/05/13 11:52:15;;;;;;;6.95;1.50;;;;;;;;;;6123293;23;19943;-90
2022/05/13 11:55:14;;;;;;;9.75;1.98;;;;;;;;;;6130332;23;20068;-88
2022/05/13 11:57:42;;;;;;;6.50;1.90;;;;;;;;;;6110482;23;20451;-90
2022/05/13 12:08:08;;;;;;;9.10;1.90;;;;;;;;;;6177865;23;20136;-90
2022/05/13 12:10:54;;;;;;;8.63;1.60;;;;;;;;;;6127845;23;20019;-88
2022/05/13 12:13:34;;;;;;;5.72;1.75;;;;;;;;;;6129516;23;20009;-90
2022/05/13 12:16:10;;;;;;;8.77;1.77;;;;;;;;;;6129246;23;20020;-90
2022/05/13 12:18:44;;;;;;;7.97;1.77;;;;;;;;;;6130191;23;20014;-91
2022/05/13 12:21:37;;;;;;;6.75;1.92;;;;;;;;;;6133063;23;20105;-91
2022/05/13 12:24:32;;;;;;;5.65;1.77;;;;;;;;;;6132159;23;20079;-90
2022/05/13 12:27:03;;;;;;;4.90;1.60;;;;;;;;;;6130537;23;20013;-90
2022/05/13 12:29:56;;;;;;;9.23;1.50;;;;;;;;;;6130443;23;20025;-91
2022/05/13 12:32:35;;;;;;;4.30;1.55;;;;;;;;;;6130356;23;20449;-90
2022/05/13 12:37:53;;;;;;;8.98;1.60;;;;;;;;;;6134581;23;20056;-91
2022/05/13 12:40:39;;;;;;;10.60;1.67;;;;;;;;;;6131476;23;20113;-90
2022/05/13 12:43:25;;;;;;;6.72;1.30;;;;;;;;;;6129364;23;20013;-90
2022/05/13 12:46:19;;;;;;;14.38;2.08;;;;;;;;;;6129632;23;20013;-89
2022/05/13 12:49:05;;;;;;;6.18;1.88;;;;;;;;;;6129665;23;20128;-90
2022/05/13 12:51:42;;;;;;;24.63;2.72;;;;;;;;;;6129040;23;20013;-90
2022/05/13 12:54:10;;;;;;;14.65;2.05;;;;;;;;;;6129252;23;20013;-90
2022/05/13 12:56:36;;;;;;;6.35;1.50;;;;;;;;;;6130072;23;20028;-90
2022/05/13 12:59:20;;;;;;;10.55;2.03;;;;;;;;;;6129321;23;20017;-91
2022/05/13 13:01:50;;;;;;;18.02;2.00;;;;;;;;;;6128212;23;20024;-91
2022/05/13 13:04:32;;;;;;;20.27;2.58;;;;;;;;;;6127454;23;20029;-89
2022/05/13 13:07:27;;;;;;;10.40;1.70;;;;;;;;;;6127385;23;20017;-91
2022/05/13 13:12:55;;;;;;;10.88;1.70;;;;;;;;;;6137344;23;20427;-91
2022/05/13 13:15:24;;;;;;;10.02;1.80;;;;;;;;;;6127619;23;20021;-90
2022/05/13 13:18:17;;;;;;;7.40;1.65;;;;;;;;;;6130761;23;20337;-88
2022/05/13 13:21:00;;;;;;;4.70;1.73;;;;;;;;;;6133061;23;20013;-91
2022/05/13 13:23:38;;;;;;;8.07;1.70;;;;;;;;;;6131395;23;20017;-90
2022/05/13 13:26:14;;;;;;;6.10;1.35;;;;;;;;;;6130727;23;20009;-90
2022/05/13 13:28:44;;;;;;;8.70;1.50;;;;;;;;;;6132607;23;20112;-91
2022/05/13 13:31:17;;;;;;;5.50;1.90;;;;;;;;;;6095618;23;20349;-92
2022/05/13 13:33:52;;;;;;;11.05;1.73;;;;;;;;;;6130954;23;20067;-91
2022/05/13 13:36:25;;;;;;;9.38;2.00;;;;;;;;;;6130140;23;20017;-92
2022/05/13 13:38:56;;;;;;;4.68;1.48;;;;;;;;;;6129772;23;20020;-92
2022/05/13 13:41:37;;;;;;;8.43;1.97;;;;;;;;;;6131170;23;20473;-93
2022/05/13 13:44:17;;;;;;;8.07;1.70;;;;;;;;;;6130959;23;20014;-88
2022/05/13 13:46:48;;;;;;;12.93;1.70;;;;;;;;;;6131244;23;20024;-91
2022/05/13 13:49:41;;;;;;;5.88;1.90;;;;;;;;;;6130601;23;20013;-90
2022/05/13 13:52:07;;;;;;;;;;;;;;;;;;6130029;23;20064;-91
2022/05/13 13:54:38;;;;;;;10.75;2.17;;;;;;;;;;6131652;23;19912;-90
2022/05/13 13:57:05;;;;;;;5.88;1.80;;;;;;;;;;6128137;23;20055;-92
2022/05/13 13:59:37;;;;;;;10.73;2.00;;;;;;;;;;6130185;23;20282;-90
2022/05/13 14:02:05;;;;;;;10.35;2.20;;;;;;;;;;6130670;23;20013;-92
2022/05/13 14:04:31;;;;;;;7.63;1.95;;;;;;;;;;6154676;23;20020;-91
2022/05/13 14:07:16;;;;;;;6.10;1.75;;;;;;;;;;6130743;23;20013;-90
2022/05/13 14:09:57;;;;;;;10.57;1.98;;;;;;;;;;6131246;23;20032;-91
2022/05/13 14:12:33;;;;;;;11.50;2.03;;;;;;;;;;6131424;23;20568;-93
2022/05/13 14:15:18;;;;;;;;;;;;;;;;;;;;;
2022/05/13 14:17:53;;;;;;;10.85;2.00;;;;;;;;;;6155208;23;20025;-94
2022/05/13 14:20:33;;;;;;;8.68;1.83;;;;;;;;;;6130296;23;20017;-91
2022/05/13 14:22:59;;;;;;;5.78;1.50;;;;;;;;;;6130018;23;20442;-93
2022/05/13 14:25:34;;;;;;;9.55;2.03;;;;;;;;;;6131719;23;20043;-92
2022/05/13 14:28:01;;;;;;;7.10;1.80;;;;;;;;;;6129077;23;20064;-91
2022/05/13 14:30:54;;;;;;;9.52;2.25;;;;;;;;;;6105606;23;20020;-91
2022/05/13 14:33:42;;;;;;;4.35;1.70;;;;;;;;;;6116985;23;20067;-93
2022/05/13 14:36:22;;;;;;;6.25;1.77;;;;;;;;;;6129134;23;20528;-91
2022/05/13 14:42:05;;;;;;;5.72;1.80;;;;;;;;;;6154011;23;20052;-92
2022/05/13 14:45:10;;;;;;;;;;;;;;;;;;;;;
2022/05/13 14:47:34;;;;;;;7.97;2.05;;;;;;;;;;6149160;23;20020;-92
2022/05/13 14:50:01;;;;;;;7.78;1.67;;;;;;;;;;6130264;23;20036;-90
2022/05/13 14:52:38;;;;;;;16.45;2.00;;;;;;;;;;6128969;23;20017;-91
2022/05/13 14:55:39;;;;;;;7.45;1.52;;;16.80;99.90;;;;;;6131755;23;20016;-92
2022/05/13 14:58:27;;;;;;;9.00;2.00;;;17.90;84.30;;;;;;6007327;23;20020;-91
2022/05/13 15:01:08;;;;;;;11.65;2.30;;;17.90;80.70;;;;;;5984751;23;20015;-91
2022/05/13 15:03:49;;;;;;;5.90;2.00;;;17.90;83.60;;;;;;6118028;23;20013;-91
2022/05/13 15:06:50;;;;;;;8.35;1.90;;;17.90;81.80;;;;;;6127552;23;20009;-92
2022/05/13 15:09:30;;;;;;;8.35;2.00;;;17.80;82.10;;;;;;6129015;23;20040;-91
2022/05/13 15:12:04;;;;;;;12.10;2.00;;;;;;;;;;6128360;23;20009;-88
2022/05/13 15:14:42;;;;;;;9.45;2.10;;;;;;;;;;6129335;23;20023;-90
2022/05/13 15:17:11;;;;;;;9.15;2.10;;;;;;;;;;6130463;23;20016;-90
2022/05/13 15:19:42;;;;;;;12.95;2.10;;;;;;;;;;6130022;23;20017;-92
2022/05/13 15:22:42;;;;;;;10.43;2.28;;;;;;;;;;6131167;23;20013;-91
2022/05/13 15:25:33;;;;;;;9.82;1.85;;;17.80;77.30;;;;;;6097909;23;20092;-92
2022/05/13 15:28:03;;;;;;;12.20;2.20;;;17.70;79.20;;;;;;6132419;23;20021;-92
2022/05/13 15:30:42;;;;;;;11.15;2.47;;;17.50;81.70;;;;;;6107467;23;20017;-89
2022/05/13 15:33:15;;;;;;;13.63;2.35;;;17.40;87.40;;;;;;6132669;23;20028;-90
2022/05/13 15:36:26;;;;;;;8.70;2.25;;;17.40;90.10;;;;;;6106518;23;20100;-92
2022/05/13 15:39:00;;;;;;;6.50;1.73;;;17.30;89.10;;;;;;6078739;23;20013;-94
2022/05/13 15:41:27;;;;;;;9.13;2.40;;;17.20;88.60;;;;;;6129715;23;20362;-91
2022/05/13 15:43:57;;;;;;;7.53;2.15;;;17.10;90.70;;;;;;6152456;23;20478;-93
2022/05/13 15:46:39;;;;;;;9.52;2.33;;;17.20;91.70;;;;;;6127836;23;20658;-90
2022/05/13 15:54:51;;;;;;;10.63;2.25;;;17.20;92.20;;;;;;6132046;23;20148;-91
2022/05/13 15:57:38;;;;;;;9.80;2.22;;;;;;;;;;6128202;23;20009;-92
2022/05/13 16:00:26;;;;;;;;;;;;;;;;;;;;;
2022/05/13 16:03:12;;;;;;;11.73;2.35;;;;;;;;;;6153975;23;20012;-93
2022/05/13 16:05:51;;;;;;;8.90;2.30;;;;;;;;;;6128978;23;20019;-90
2022/05/13 16:08:20;;;;;;;10.25;2.13;;;;;;;;;;6152397;23;20042;-92
2022/05/13 16:10:50;;;;;;;12.10;2.10;;;;;;;;;;6127906;23;20024;-91
2022/05/13 16:13:48;;;;;;;12.48;2.30;;;;;;;;;;6104225;23;20013;-92
2022/05/13 16:16:23;;;;;;;11.30;2.47;;;;;;;;;;6099382;23;20028;-91
2022/05/13 16:18:52;;;;;;;7.50;2.20;;;;;;;;;;6128458;23;20021;-90
2022/05/13 16:35:27;;;;;;;9.88;2.22;;;;;;;;;;6181375;23;20023;-90
2022/05/13 16:38:00;;;;;;;7.88;2.13;;;;;;;;;;6128415;23;20039;-90
2022/05/13 16:40:31;;;;;;;9.57;2.13;;;;;;;;;;6128623;23;20350;-92
2022/05/13 16:43:11;;;;;;;10.48;2.17;;;;;;;;;;6155716;23;20017;-93
2022/05/13 16:45:41;;;;;;;9.18;2.15;;;;;;;;;;6128731;23;20013;-91
2022/05/13 16:48:13;;;;;;;7.63;1.90;;;;;;;;;;6127777;23;20067;-91
2022/05/13 16:50:58;;;;;;;7.85;2.40;;;;;;;;;;6128714;23;20107;-90
2022/05/13 16:53:31;;;;;;;8.18;2.72;;;;;;;;;;6155464;23;20732;-91
2022/05/13 16:56:01;;;;;;;10.07;2.03;;;;;;;;;;6129063;23;20017;-90
2022/05/13 16:58:27;;;;;;;9.40;2.60;;;;;;;;;;6129858;23;20056;-90
2022/05/13 17:01:06;;;;;;;8.55;2.55;;;;;;;;;;6106759;23;20009;-90
2022/05/13 17:03:44;;;;;;;5.97;2.53;;;;;;;;;;6107578;23;20017;-92
2022/05/13 17:06:12;;;;;;;8.88;2.25;;;;;;;;;;6130171;23;20012;-91
2022/05/13 17:17:39;;;;;;;12.52;2.60;;;;;;;;;;6155605;23;20017;-92
2022/05/13 17:20:10;;;;;;;9.27;2.30;;;;;;;;;;6130779;23;20013;-91
2022/05/13 17:22:45;;;;;;;8.65;2.40;;;;;;;;;;6106270;23;20021;-92
2022/05/13 17:25:12;;;;;;;7.63;2.30;;;;;;;;;;6130082;23;20012;-91
2022/05/13 17:27:59;;;;;;;9.77;3.05;;;;;;;;;;6107210;23;20024;-91
2022/05/13 17:30:59;;;;;;;14.25;3.22;;;;;;;;;;6134245;23;20658;-91
2022/05/13 17:33:45;;;;;;;7.45;2.22;;;;;;;;;;6155532;23;20017;-92
2022/05/13 17:36:17;;;;;;;11.88;2.70;;;;;;;;;;6154339;23;20027;-89
2022/05/13 17:38:48;;;;;;;11.98;2.70;;;;;;;;;;6128903;23;20573;-89
2022/05/13 17:41:24;;;;;;;;;;;;;;;;;;;;;
2022/05/13 17:43:53;;;;;;;6.63;2.35;;;;;;;;;;6155992;23;20079;-91
2022/05/13 17:46:26;;;;;;;11.43;2.70;;;;;;;;;;6130302;23;20032;-92
2022/05/13 17:49:15;;;;;;;7.00;2.38;;;;;;;;;;6131402;23;20039;-90
2022/05/13 17:51:48;;;;;;;11.38;2.88;;;;;;;;;;6137058;23;20071;-90
2022/05/13 17:54:26;;;;;;;11.98;2.75;;;;;;;;;;6130403;23;20024;-92
2022/05/13 17:57:18;;;;;;;7.97;3.13;;;;;;;;;;6155974;23;20067;-90
2022/05/13 17:59:44;;;;;;;10.93;3.05;;;;;;;;;;6155257;23;20063;-93
2022/05/13 18:02:42;;;;;;;;;;;;;;;;;;;;;
2022/05/13 18:05:19;;;;;;;12.52;3.30;;;;;;;;;;6158920;23;20454;-92
2022/05/13 18:08:00;;;;;;;11.13;3.38;;;;;;;;;;6154795;23;20024;-91
2022/05/13 18:10:36;;;;;;;11.55;3.08;;;;;;;;;;6155295;23;20013;-92
2022/05/13 18:13:03;;;;;;;12.75;3.10;;;;;;;;;;6130147;23;20044;-91
2022/05/13 18:15:43;;;;;;;12.23;3.92;;;;;;;;;;6152507;23;20016;-89
2022/05/13 18:18:31;;;;;;;15.05;3.42;;;;;;;;;;6178312;23;20100;-90
2022/05/13 18:21:12;;;;;;;12.88;3.88;;;;;;;;;;6133810;23;20088;-89
2022/05/13 18:23:51;;;;;;;11.48;3.90;;;;;;;;;;6154458;23;20013;-91
2022/05/13 18:26:32;;;;;;;14.20;4.07;;;;;;;;;;6154128;23;20013;-91
2022/05/13 18:29:10;;;;;;;10.55;3.67;;;;;;;;;;6152511;23;20021;-90
2022/05/13 18:31:39;;;;;;;14.15;3.90;;;;;;;;;;6153287;23;20017;-90
2022/05/13 18:34:06;;;;;;;15.18;3.92;;;;;;;;;;6152715;23;20326;-90
2022/05/13 18:36:34;;;;;;;10.98;3.85;;;17.30;93.00;;;;;;6153337;23;20543;-89
2022/05/13 18:39:26;;;;;;;;;;;;;;;;;;;;;
2022/05/13 18:47:26;;;;;;;11.68;4.50;;;;;;;;;;6177246;23;20096;-89
2022/05/13 18:49:56;;;;;;;14.80;4.18;;;;;;;;;;6152602;23;20025;-89
2022/05/13 18:52:27;;;;;;;11.45;3.83;;;;;;;;;;6153941;23;20013;-91
2022/05/13 18:55:01;;;;;;;12.65;4.13;;;;;;;;;;6154156;23;20053;-89
2022/05/13 18:57:33;;;;;;;13.38;4.22;;;;;;;;;;6151948;23;20100;-91
2022/05/13 18:59:59;;;;;;;17.13;4.55;;;;;;;;;;6150957;23;20096;-90
2022/05/13 19:02:28;;;;;;;15.68;4.63;;;;;;;;;;6153127;23;20017;-89
2022/05/13 19:05:04;;;;;;;15.52;4.30;;;15.10;99.90;;;;;;6129369;23;20450;-91
2022/05/13 19:07:50;;;;;;;14.65;4.45;;;14.80;99.90;;;;;;6152726;23;20024;-91
2022/05/13 19:10:44;;;;;;;12.85;4.68;;;14.70;99.90;;;;;;6129295;23;20324;-91
2022/05/13 19:13:22;;;;;;;10.68;4.30;;;14.70;99.90;;;;;;6152977;23;20099;-88
2022/05/13 19:15:58;;;;;;;14.27;4.57;;;;;;;;;;6166763;23;20096;-90
2022/05/13 19:18:43;;;;;;;12.35;3.95;;;;;;;;;;6180763;23;20017;-90
2022/05/13 19:21:10;;;;;;;11.18;4.50;;;;;;;;;;6164752;23;20538;-91
2022/05/13 19:23:37;;;;;;;13.68;4.45;;;14.70;99.90;;;;;;6156086;23;20438;-90
2022/05/13 19:26:11;;;;;;;11.40;4.22;;;;;;;;;;6130221;23;20333;-90
2022/05/13 19:28:39;;;;;;;17.02;6.90;;;;;;;;;;6153496;23;20013;-91
2022/05/13 19:31:07;;;;;;;14.73;4.13;;;;;;;;;;6177702;23;20016;-89
2022/05/13 19:34:08;;;;;;;17.02;4.82;;;;;;;;;;6151231;23;20056;-91
2022/05/13 19:36:46;;;;;;;13.52;4.47;;;;;;;;;;6154163;23;20496;-91
2022/05/13 19:39:12;;;;;;;12.03;4.30;;;;;;;;;;6153604;23;20013;-90
2022/05/13 19:41:39;;;;;;;12.75;4.63;;;;;;;;;;6154752;23;20252;-88
2022/05/13 19:44:09;;;;;;;14.05;4.65;;;;;;;;;;6129067;23;20476;-90
2022/05/13 19:46:38;;;;;;;12.73;4.47;;;;;;;;;;6153094;23;20017;-90
2022/05/13 19:49:12;;;;;;;14.55;4.70;;;;;;;;;;6155045;23;20040;-90
2022/05/13 19:51:41;;;;;;;13.43;4.85;;;;;;;;;;6152361;23;20068;-91
2022/05/13 19:54:26;;;;;;;12.57;4.50;;;;;;;;;;6128958;23;20218;-90
2022/05/13 19:57:01;;;;;;;17.45;4.45;;;;;;;;;;6154481;23;20039;-91
2022/05/13 19:59:31;;;;;;;14.45;4.55;;;;;;;;;;6153276;23;20049;-91
2022/05/13 20:02:00;;;;;;;15.40;4.75;;;;;;;;;;6128780;23;20012;-90
2022/05/13 20:11:01;;;;;;;14.20;4.88;;;;;;;;;;6178619;23;20194;-92
2022/05/13 20:13:40;;;;;;;15.07;4.80;;;;;;;;;;6152988;23;20359;-91
2022/05/13 20:16:32;;;;;;;18.73;4.88;;;14.50;99.90;;;;;;6153550;23;20013;-91
2022/05/13 20:19:03;;;;;;;14.07;5.45;;;;;;;;;;6143677;23;20009;-93
2022/05/13 20:25:16;;;;;;;13.15;4.90;;;;;;;;;;6137757;23;20096;-91
2022/05/13 20:27:48;;;;;;;15.57;4.78;;;;;;;;;;6156787;23;20017;-91
2022/05/13 20:30:15;;;;;;;10.82;4.57;;;;;;;;;;6155243;23;20017;-91
2022/05/13 20:32:49;;;;;;;12.32;4.20;;;;;;;;;;6131961;23;20101;-91
2022/05/13 20:35:21;;;;;;;12.95;4.88;;;;;;;;;;6132267;23;20048;-91
2022/05/13 20:38:00;;;;;;;13.43;4.60;;;;;;;;;;6131040;23;20017;-91
2022/05/13 20:40:39;;;;;;;17.55;4.88;;;;;;;;;;6128383;23;20024;-91
2022/05/13 20:43:14;;;;;;;14.15;5.43;;;;;;;;;;6132145;23;20012;-91
2022/05/13 20:45:43;;;;;;;;;;;;;;;;;;6130880;23;20116;-92
2022/05/13 20:48:28;;;;;;;13.32;4.80;;;;;;;;;;6129998;23;20190;-92
2022/05/13 20:54:31;;;;;;;14.13;4.70;;;;;;;;;;6030813;23;20031;-91
2022/05/13 20:57:25;;;;;;;16.65;5.22;;;;;;;;;;6110832;23;20386;-91
2022/05/13 23:30:18;;;;;;;;;;;;;;;;;;;;;
2022/05/13 23:36:37;;;;;;;12.30;4.38;;;;;;;;;;5970100;24;20299;-89
2022/05/13 23:49:59;;;;;;;15.55;4.72;;;;;;;;;;5944269;24;20019;-89
